Time;durP1;ratioP1;P1;durP2;ratioP2;P2;SDS_P1;SDS_P2;PMS_P1;PMS_P2;Temp;Humidity;BMP_temperature;BMP_pressure;BME280_temperature;BME280_humidity;BME280_pressure;Samples;Min_cycle;Max_cycle;Signal;HPM_P1;HPM_P2
2022/09/15 00:01:59;;;;;;;0.00;0.00;;;13.70;99.90;;;;;;5055278;28;20037;-85
2022/09/15 00:04:26;;;;;;;0.00;0.00;;;13.70;99.90;;;;;;5062018;28;20049;-85
2022/09/15 00:06:53;;;;;;;0.00;0.00;;;13.80;99.90;;;;;;5055856;28;20513;-84
2022/09/15 00:09:19;;;;;;;0.08;0.08;;;13.70;99.90;;;;;;5058869;28;20100;-84
2022/09/15 00:11:47;;;;;;;0.00;0.00;;;13.70;99.90;;;;;;5055477;28;20778;-85
2022/09/15 00:14:14;;;;;;;0.00;0.00;;;13.70;99.90;;;;;;5063027;28;20116;-84
2022/09/15 00:16:41;;;;;;;0.00;0.00;;;13.70;99.90;;;;;;5055930;28;20053;-84
2022/09/15 00:19:08;;;;;;;0.00;0.00;;;13.60;99.90;;;;;;5056006;28;20112;-84
2022/09/15 00:21:38;;;;;;;0.00;0.00;;;13.60;99.90;;;;;;5051799;28;20475;-82
2022/09/15 00:24:05;;;;;;;0.00;0.00;;;13.50;99.90;;;;;;5060797;28;20108;-84
2022/09/15 00:26:33;;;;;;;0.00;0.00;;;13.50;99.90;;;;;;5062415;28;20104;-85
2022/09/15 00:29:01;;;;;;;0.00;0.00;;;13.40;99.90;;;;;;5050773;28;20056;-84
2022/09/15 00:31:29;;;;;;;0.00;0.00;;;13.40;99.90;;;;;;5058287;28;20493;-85
2022/09/15 00:33:58;;;;;;;0.00;0.00;;;13.40;99.90;;;;;;5056264;28;20043;-83
2022/09/15 00:36:25;;;;;;;0.00;0.00;;;13.40;99.90;;;;;;5057694;28;20503;-85
2022/09/15 00:38:52;;;;;;;0.00;0.00;;;13.40;99.90;;;;;;5054571;28;20045;-84
2022/09/15 00:41:21;;;;;;;0.00;0.00;;;13.20;99.90;;;;;;5059698;28;20128;-85
2022/09/15 00:43:51;;;;;;;0.00;0.00;;;13.20;99.90;;;;;;5054783;28;20540;-85
2022/09/15 00:46:23;;;;;;;0.00;0.00;;;13.20;99.90;;;;;;5057055;28;20071;-84
2022/09/15 00:48:58;;;;;;;0.00;0.00;;;13.20;99.90;;;;;;5055053;28;20069;-84
2022/09/15 00:51:32;;;;;;;0.00;0.00;;;13.20;99.90;;;;;;5053708;28;20072;-85
2022/09/15 00:54:02;;;;;;;0.00;0.00;;;13.10;99.90;;;;;;5055838;28;20465;-84
2022/09/15 00:56:32;;;;;;;0.00;0.00;;;13.10;99.90;;;;;;5058940;28;20127;-85
2022/09/15 00:59:02;;;;;;;0.00;0.00;;;13.10;99.90;;;;;;5053359;28;20079;-84
2022/09/15 01:01:31;;;;;;;0.00;0.00;;;13.00;99.90;;;;;;5047401;28;20037;-84
2022/09/15 01:03:58;;;;;;;0.00;0.00;;;12.90;99.90;;;;;;5055216;28;20044;-85
2022/09/15 01:06:30;;;;;;;0.00;0.00;;;12.90;99.90;;;;;;5056017;28;20612;-84
2022/09/15 01:09:03;;;;;;;0.00;0.00;;;12.90;99.90;;;;;;5056592;28;20039;-85
2022/09/15 01:11:30;;;;;;;0.00;0.00;;;12.80;99.90;;;;;;5054652;28;20121;-85
2022/09/15 01:13:57;;;;;;;0.00;0.00;;;13.30;99.90;;;;;;5053393;28;20116;-84
2022/09/15 01:16:45;;;;;;;0.00;0.00;;;12.80;99.90;;;;;;5049391;28;20096;-85
2022/09/15 01:19:50;;;;;;;0.00;0.00;;;12.80;99.90;;;;;;5053905;28;20037;-84
2022/09/15 01:22:32;;;;;;;0.00;0.00;;;12.70;99.90;;;;;;4981333;28;20176;-85
2022/09/15 01:25:06;;;;;;;0.00;0.00;;;12.60;99.90;;;;;;5060848;28;20068;-84
2022/09/15 01:28:04;;;;;;;0.00;0.00;;;13.20;99.90;;;;;;5057417;28;20116;-85
2022/09/15 01:30:34;;;;;;;0.00;0.00;;;12.70;99.90;;;;;;5050489;28;20091;-85
2022/09/15 01:33:14;;;;;;;0.00;0.00;;;12.70;99.90;;;;;;5049688;28;20067;-85
2022/09/15 01:35:47;;;;;;;;;;;12.50;99.90;;;;;;5058236;28;20176;-85
2022/09/15 01:38:24;;;;;;;0.00;0.00;;;12.50;99.90;;;;;;5056227;28;20462;-85
2022/09/15 01:40:59;;;;;;;0.00;0.00;;;12.30;99.90;;;;;;5065454;28;20071;-84
2022/09/15 01:43:28;;;;;;;0.00;0.00;;;12.30;99.90;;;;;;5051102;28;20129;-84
2022/09/15 01:45:58;;;;;;;0.00;0.00;;;12.30;99.90;;;;;;5053232;28;20045;-85
2022/09/15 01:48:27;;;;;;;0.00;0.00;;;12.30;99.90;;;;;;5060498;28;20385;-84
2022/09/15 01:50:59;;;;;;;0.00;0.00;;;12.20;99.90;;;;;;5055319;28;20394;-84
2022/09/15 01:53:26;;;;;;;0.00;0.00;;;12.30;99.90;;;;;;5056854;28;20100;-84
2022/09/15 01:55:58;;;;;;;0.10;0.10;;;12.30;99.90;;;;;;5058488;28;20120;-85
2022/09/15 01:58:25;;;;;;;0.00;0.00;;;12.30;99.90;;;;;;5056954;28;20041;-84
2022/09/15 02:00:58;;;;;;;0.00;0.00;;;12.30;99.90;;;;;;5056469;28;20124;-84
2022/09/15 02:03:32;;;;;;;0.00;0.00;;;12.30;99.90;;;;;;5083164;22;21123;-79
2022/09/15 02:06:06;;;;;;;0.10;0.10;;;12.20;99.90;;;;;;5075635;28;20472;-81
2022/09/15 02:08:38;;;;;;;0.00;0.00;;;12.30;99.90;;;;;;5062579;28;20080;-81
2022/09/15 02:11:13;;;;;;;0.10;0.10;;;12.30;99.90;;;;;;5065947;28;20046;-79
2022/09/15 02:13:47;;;;;;;0.00;0.00;;;12.20;99.90;;;;;;5063526;28;20041;-80
2022/09/15 02:16:19;;;;;;;0.05;0.05;;;12.20;99.90;;;;;;5062010;28;20060;-80
2022/09/15 02:18:58;;;;;;;0.00;0.00;;;12.10;99.90;;;;;;5056607;28;20049;-79
2022/09/15 02:21:30;;;;;;;0.00;0.00;;;12.10;99.90;;;;;;5062386;28;20040;-81
2022/09/15 02:24:04;;;;;;;0.08;0.08;;;12.10;99.90;;;;;;5064952;28;20488;-80
2022/09/15 02:26:33;;;;;;;0.00;0.00;;;12.20;99.90;;;;;;5061114;28;20041;-82
2022/09/15 02:29:04;;;;;;;0.00;0.00;;;12.10;99.90;;;;;;5060229;28;20043;-81
2022/09/15 02:31:36;;;;;;;0.10;0.10;;;12.10;99.90;;;;;;5059606;28;20047;-80
2022/09/15 02:34:09;;;;;;;0.10;0.10;;;12.00;99.90;;;;;;5059605;28;20412;-80
2022/09/15 02:36:38;;;;;;;0.10;0.10;;;12.10;99.90;;;;;;5060779;28;20048;-81
2022/09/15 02:39:09;;;;;;;0.00;0.00;;;12.10;99.90;;;;;;5056721;28;20405;-82
2022/09/15 02:41:37;;;;;;;0.00;0.00;;;12.10;99.90;;;;;;5054961;28;20791;-80
2022/09/15 02:44:04;;;;;;;0.00;0.00;;;11.90;99.90;;;;;;5062892;28;20055;-82
2022/09/15 02:46:32;;;;;;;0.10;0.10;;;11.90;99.90;;;;;;5052602;28;20068;-82
2022/09/15 02:48:59;;;;;;;0.00;0.00;;;11.90;99.90;;;;;;5055176;28;20884;-80
2022/09/15 02:51:26;;;;;;;0.00;0.00;;;12.00;99.90;;;;;;5063614;28;20500;-81
2022/09/15 02:53:53;;;;;;;0.00;0.00;;;12.00;99.90;;;;;;5060932;28;20052;-79
2022/09/15 02:56:21;;;;;;;0.00;0.00;;;12.00;99.90;;;;;;5062624;28;20049;-79
2022/09/15 02:58:47;;;;;;;0.00;0.00;;;12.10;99.90;;;;;;5061342;28;20106;-82
2022/09/15 03:01:15;;;;;;;0.00;0.00;;;12.10;99.90;;;;;;5065942;28;20066;-80
2022/09/15 03:03:44;;;;;;;0.00;0.00;;;12.10;99.90;;;;;;5074185;28;20077;-81
2022/09/15 03:06:20;;;;;;;0.00;0.00;;;12.10;99.90;;;;;;5068043;28;20053;-80
2022/09/15 03:08:49;;;;;;;0.10;0.10;;;12.10;99.90;;;;;;5062357;28;20047;-81
2022/09/15 03:11:18;;;;;;;0.10;0.10;;;12.10;99.90;;;;;;5064081;28;20045;-80
2022/09/15 03:13:45;;;;;;;0.00;0.00;;;12.10;99.90;;;;;;5056373;28;20512;-82
2022/09/15 03:16:15;;;;;;;0.05;0.05;;;12.20;99.90;;;;;;5058193;28;20510;-81
2022/09/15 03:18:43;;;;;;;0.00;0.00;;;12.10;99.90;;;;;;5064342;28;20045;-81
2022/09/15 03:21:12;;;;;;;0.10;0.10;;;12.10;99.90;;;;;;5063904;28;20048;-79
2022/09/15 03:23:40;;;;;;;0.00;0.00;;;12.10;99.90;;;;;;5057367;28;20051;-80
2022/09/15 03:26:08;;;;;;;0.10;0.10;;;12.00;99.90;;;;;;5061538;28;20051;-79
2022/09/15 03:28:35;;;;;;;0.32;0.32;;;11.90;99.90;;;;;;5061373;28;20041;-80
2022/09/15 03:31:02;;;;;;;0.25;0.25;;;11.80;99.90;;;;;;5061097;28;20040;-82
2022/09/15 03:33:30;;;;;;;0.20;0.20;;;11.90;99.90;;;;;;5066258;28;20036;-81
2022/09/15 03:35:58;;;;;;;0.43;0.38;;;11.70;99.90;;;;;;5069114;28;20090;-80
2022/09/15 03:38:25;;;;;;;0.13;0.13;;;11.70;99.90;;;;;;5058096;28;20044;-81
2022/09/15 03:40:57;;;;;;;0.10;0.10;;;11.50;99.90;;;;;;5057485;28;20053;-81
2022/09/15 03:43:24;;;;;;;0.00;0.00;;;11.70;99.90;;;;;;5064140;28;20045;-79
2022/09/15 03:45:52;;;;;;;0.10;0.10;;;11.70;99.90;;;;;;5066418;28;20052;-81
2022/09/15 03:48:19;;;;;;;0.20;0.20;;;11.70;99.90;;;;;;5058241;28;20053;-81
2022/09/15 03:50:46;;;;;;;0.15;0.15;;;11.80;99.90;;;;;;5062151;28;20051;-81
2022/09/15 03:53:14;;;;;;;0.00;0.00;;;11.80;99.90;;;;;;5062932;28;20041;-81
2022/09/15 03:55:41;;;;;;;0.10;0.10;;;11.90;99.90;;;;;;5061617;28;20071;-80
2022/09/15 03:58:08;;;;;;;0.00;0.00;;;11.90;99.90;;;;;;5056696;28;20055;-81
2022/09/15 04:00:35;;;;;;;0.00;0.00;;;11.90;99.90;;;;;;5059909;28;20493;-80
2022/09/15 04:03:02;;;;;;;0.00;0.00;;;11.90;99.90;;;;;;5057592;28;20059;-78
2022/09/15 04:05:29;;;;;;;0.00;0.00;;;11.90;99.90;;;;;;5054174;28;20049;-78
2022/09/15 04:07:55;;;;;;;0.10;0.10;;;12.00;99.90;;;;;;5053003;28;20044;-81
2022/09/15 04:10:23;;;;;;;0.00;0.00;;;12.00;99.90;;;;;;5055043;28;20045;-80
2022/09/15 04:12:51;;;;;;;0.00;0.00;;;12.10;99.90;;;;;;5058247;28;20055;-80
2022/09/15 04:15:18;;;;;;;0.05;0.05;;;12.10;99.90;;;;;;5059099;28;20073;-79
2022/09/15 04:17:46;;;;;;;0.00;0.00;;;12.10;99.90;;;;;;5056160;28;20036;-80
2022/09/15 04:20:13;;;;;;;0.00;0.00;;;12.10;99.90;;;;;;5069869;28;20070;-81
2022/09/15 04:22:40;;;;;;;0.10;0.10;;;12.10;99.90;;;;;;5059628;28;20041;-81
2022/09/15 04:25:08;;;;;;;0.00;0.00;;;12.10;99.90;;;;;;5073174;28;20116;-81
2022/09/15 04:27:37;;;;;;;0.00;0.00;;;12.10;99.90;;;;;;5061171;28;20051;-79
2022/09/15 04:30:05;;;;;;;0.00;0.00;;;12.20;99.90;;;;;;5061444;28;20044;-80
2022/09/15 04:32:34;;;;;;;0.00;0.00;;;12.30;99.90;;;;;;5054967;28;20050;-80
2022/09/15 04:35:01;;;;;;;0.00;0.00;;;12.40;99.90;;;;;;5061135;28;20041;-79
2022/09/15 04:37:28;;;;;;;0.00;0.00;;;12.40;99.90;;;;;;5064214;28;20407;-80
2022/09/15 04:39:55;;;;;;;0.00;0.00;;;12.40;99.90;;;;;;5060917;28;20040;-80
2022/09/15 04:42:22;;;;;;;0.00;0.00;;;12.40;99.90;;;;;;5055005;28;20044;-81
2022/09/15 04:44:51;;;;;;;0.00;0.00;;;12.40;99.90;;;;;;5059850;28;20072;-80
2022/09/15 04:47:18;;;;;;;0.00;0.00;;;12.40;99.90;;;;;;5055851;28;20058;-80
2022/09/15 04:49:45;;;;;;;0.10;0.10;;;12.50;99.90;;;;;;5055582;28;20080;-81
2022/09/15 04:52:12;;;;;;;0.00;0.00;;;12.50;99.90;;;;;;5051127;28;20128;-81
2022/09/15 04:54:39;;;;;;;0.00;0.00;;;12.50;99.90;;;;;;5053184;28;20045;-81
2022/09/15 04:57:06;;;;;;;0.00;0.00;;;12.60;99.90;;;;;;5053785;28;20119;-81
2022/09/15 04:59:33;;;;;;;0.00;0.00;;;12.60;99.90;;;;;;5060192;28;20497;-81
2022/09/15 05:02:02;;;;;;;0.00;0.00;;;12.60;99.90;;;;;;5060122;28;20533;-81
2022/09/15 05:04:29;;;;;;;0.00;0.00;;;12.70;99.90;;;;;;5059246;28;20091;-80
2022/09/15 05:06:56;;;;;;;0.00;0.00;;;12.70;99.90;;;;;;5065850;28;20040;-79
2022/09/15 05:09:23;;;;;;;0.00;0.00;;;12.80;99.90;;;;;;5060303;28;20057;-81
2022/09/15 05:11:49;;;;;;;0.00;0.00;;;12.90;99.90;;;;;;5066320;28;20056;-81
2022/09/15 05:14:16;;;;;;;0.00;0.00;;;12.90;99.90;;;;;;5053804;28;20116;-79
2022/09/15 05:16:43;;;;;;;0.10;0.10;;;13.00;99.90;;;;;;5074717;28;20633;-80
2022/09/15 05:19:11;;;;;;;0.00;0.00;;;12.90;99.90;;;;;;5066101;28;20463;-80
2022/09/15 05:21:38;;;;;;;0.00;0.00;;;13.00;99.90;;;;;;5070785;28;20044;-81
2022/09/15 05:24:06;;;;;;;0.00;0.00;;;13.00;99.90;;;;;;5066035;28;20485;-79
2022/09/15 05:26:32;;;;;;;0.00;0.00;;;13.10;99.90;;;;;;5057463;28;20094;-79
2022/09/15 05:28:59;;;;;;;0.00;0.00;;;13.10;99.90;;;;;;5068330;28;20415;-80
2022/09/15 05:31:29;;;;;;;0.00;0.00;;;13.20;99.90;;;;;;5066010;28;20050;-80
2022/09/15 05:33:59;;;;;;;0.00;0.00;;;13.30;99.90;;;;;;5068834;28;20078;-79
2022/09/15 05:36:27;;;;;;;0.00;0.00;;;13.30;99.90;;;;;;5066948;28;20045;-79
2022/09/15 05:38:57;;;;;;;0.00;0.00;;;13.30;99.90;;;;;;5062123;28;20045;-82
2022/09/15 05:41:26;;;;;;;0.00;0.00;;;13.30;99.90;;;;;;5073012;28;20049;-82
2022/09/15 05:43:55;;;;;;;0.00;0.00;;;13.30;99.90;;;;;;5059956;28;20116;-81
2022/09/15 05:46:24;;;;;;;0.00;0.00;;;13.40;99.90;;;;;;5061810;28;20040;-79
2022/09/15 05:48:53;;;;;;;0.00;0.00;;;13.50;99.90;;;;;;5071649;28;20163;-80
2022/09/15 05:51:20;;;;;;;0.00;0.00;;;13.50;99.90;;;;;;5067317;28;20042;-80
2022/09/15 05:53:49;;;;;;;0.00;0.00;;;13.60;99.90;;;;;;5071535;28;20505;-82
2022/09/15 05:56:17;;;;;;;0.00;0.00;;;13.60;99.90;;;;;;5060077;28;20052;-80
2022/09/15 05:58:45;;;;;;;0.00;0.00;;;13.60;99.90;;;;;;5071829;28;20053;-81
2022/09/15 06:01:14;;;;;;;0.00;0.00;;;13.70;99.90;;;;;;5064954;28;20041;-80
2022/09/15 06:03:41;;;;;;;0.00;0.00;;;13.90;99.90;;;;;;5066479;28;20098;-79
2022/09/15 06:06:09;;;;;;;0.00;0.00;;;13.90;99.90;;;;;;5069605;28;20038;-81
2022/09/15 06:08:38;;;;;;;0.00;0.00;;;13.80;99.90;;;;;;5066117;28;20064;-80
2022/09/15 06:11:12;;;;;;;0.00;0.00;;;13.80;99.90;;;;;;5063553;28;20521;-80
2022/09/15 06:13:40;;;;;;;0.00;0.00;;;;;;;;;;5078128;28;20042;-81
2022/09/15 06:16:08;;;;;;;0.00;0.00;;;13.80;99.90;;;;;;5070519;28;20035;-80
2022/09/15 06:18:37;;;;;;;0.00;0.00;;;13.80;99.90;;;;;;5071352;28;20063;-81
2022/09/15 06:21:06;;;;;;;0.00;0.00;;;14.00;99.90;;;;;;5065519;28;20116;-81
2022/09/15 06:23:33;;;;;;;0.00;0.00;;;13.90;99.90;;;;;;5062892;28;20525;-81
2022/09/15 06:26:05;;;;;;;0.00;0.00;;;13.90;99.90;;;;;;5056214;28;20057;-80
2022/09/15 06:28:33;;;;;;;0.00;0.00;;;13.80;99.90;;;;;;5063083;28;20041;-81
2022/09/15 06:31:00;;;;;;;0.00;0.00;;;13.80;99.90;;;;;;5068371;28;20406;-79
2022/09/15 06:33:27;;;;;;;0.00;0.00;;;13.80;99.90;;;;;;5062178;28;20051;-81
2022/09/15 06:35:53;;;;;;;0.00;0.00;;;13.90;99.90;;;;;;5060114;28;20049;-80
2022/09/15 06:38:20;;;;;;;0.00;0.00;;;14.00;99.90;;;;;;5051927;28;20047;-80
2022/09/15 06:40:54;;;;;;;0.00;0.00;;;14.10;99.90;;;;;;5055638;28;20045;-80
2022/09/15 06:43:21;;;;;;;0.00;0.00;;;14.20;99.90;;;;;;5053352;28;20501;-79
2022/09/15 06:45:49;;;;;;;0.00;0.00;;;14.20;99.90;;;;;;5058893;28;20045;-82
2022/09/15 06:48:16;;;;;;;0.00;0.00;;;14.10;99.90;;;;;;5063367;28;20036;-80
2022/09/15 06:50:54;;;;;;;0.00;0.00;;;14.10;99.90;;;;;;5070176;28;20066;-80
2022/09/15 06:53:21;;;;;;;0.00;0.00;;;14.10;99.90;;;;;;5064747;28;20045;-80
2022/09/15 06:55:48;;;;;;;0.00;0.00;;;14.10;99.90;;;;;;5069727;28;20071;-80
2022/09/15 06:58:15;;;;;;;0.00;0.00;;;14.20;99.90;;;;;;5082058;28;20078;-79
2022/09/15 07:00:42;;;;;;;0.00;0.00;;;14.40;99.90;;;;;;5069422;28;20052;-80
2022/09/15 07:03:10;;;;;;;0.00;0.00;;;14.40;99.90;;;;;;5076467;28;20426;-80
2022/09/15 07:05:37;;;;;;;0.00;0.00;;;14.40;99.90;;;;;;5068265;28;20048;-82
2022/09/15 07:08:04;;;;;;;0.00;0.00;;;14.60;99.90;;;;;;5079045;28;20511;-81
2022/09/15 07:10:31;;;;;;;0.00;0.00;;;14.60;99.90;;;;;;5081712;28;20034;-81
2022/09/15 07:13:00;;;;;;;0.00;0.00;;;14.60;99.90;;;;;;5073193;28;20490;-79
2022/09/15 07:15:26;;;;;;;0.10;0.10;;;14.60;99.90;;;;;;5066354;28;20037;-81
2022/09/15 07:17:53;;;;;;;0.00;0.00;;;14.70;99.90;;;;;;5059295;28;20305;-79
2022/09/15 07:20:21;;;;;;;0.00;0.00;;;14.70;99.90;;;;;;5059649;28;20492;-82
2022/09/15 07:22:48;;;;;;;0.00;0.00;;;14.70;99.90;;;;;;5062762;28;20477;-79
2022/09/15 07:25:15;;;;;;;0.00;0.00;;;14.70;99.90;;;;;;5060434;28;20048;-81
2022/09/15 07:27:42;;;;;;;0.00;0.00;;;14.70;99.90;;;;;;5055002;28;20037;-81
2022/09/15 07:30:10;;;;;;;0.00;0.00;;;14.70;99.90;;;;;;5063258;28;20563;-81
2022/09/15 07:32:37;;;;;;;0.00;0.00;;;14.70;99.90;;;;;;5074115;28;20065;-80
2022/09/15 07:35:05;;;;;;;0.00;0.00;;;14.80;99.90;;;;;;5068711;28;20042;-80
2022/09/15 07:37:33;;;;;;;0.00;0.00;;;14.90;99.90;;;;;;5056636;28;20029;-80
2022/09/15 07:40:00;;;;;;;0.00;0.00;;;15.00;99.90;;;;;;5057475;28;20052;-81
2022/09/15 07:42:27;;;;;;;0.00;0.00;;;15.20;99.90;;;;;;5059141;28;20052;-81
2022/09/15 07:45:00;;;;;;;0.10;0.10;;;15.10;99.90;;;;;;5075923;28;20109;-80
2022/09/15 07:47:27;;;;;;;0.00;0.00;;;15.20;99.90;;;;;;5063809;28;20041;-81
2022/09/15 07:49:54;;;;;;;0.00;0.00;;;15.20;99.90;;;;;;5075601;28;20051;-81
2022/09/15 07:52:21;;;;;;;0.00;0.00;;;15.30;99.90;;;;;;5076707;28;20037;-79
2022/09/15 07:54:49;;;;;;;0.00;0.00;;;15.40;99.90;;;;;;5074040;28;20196;-81
2022/09/15 07:57:15;;;;;;;0.00;0.00;;;15.40;99.90;;;;;;5085264;28;20033;-79
2022/09/15 07:59:42;;;;;;;0.00;0.00;;;15.60;99.90;;;;;;5089242;28;20071;-80
2022/09/15 08:02:16;;;;;;;0.00;0.00;;;15.50;99.90;;;;;;5073820;28;20037;-79
2022/09/15 08:04:43;;;;;;;0.00;0.00;;;15.30;99.90;;;;;;5056249;28;20040;-81
2022/09/15 08:07:10;;;;;;;0.00;0.00;;;15.20;99.90;;;;;;5073199;28;20051;-81
2022/09/15 08:09:37;;;;;;;0.00;0.00;;;15.30;99.90;;;;;;5068509;28;20052;-81
2022/09/15 08:12:07;;;;;;;0.00;0.00;;;15.40;99.90;;;;;;5069035;28;20047;-82
2022/09/15 08:14:34;;;;;;;0.00;0.00;;;15.50;99.90;;;;;;5078709;28;20040;-81
2022/09/15 08:17:03;;;;;;;0.00;0.00;;;15.60;99.90;;;;;;5066223;28;20043;-82
2022/09/15 08:19:36;;;;;;;0.00;0.00;;;15.60;99.90;;;;;;5074865;28;20464;-81
2022/09/15 08:22:03;;;;;;;0.00;0.00;;;15.80;99.90;;;;;;5065295;28;20044;-82
2022/09/15 08:24:30;;;;;;;0.00;0.00;;;16.10;99.90;;;;;;5068901;28;20042;-82
2022/09/15 08:26:57;;;;;;;0.00;0.00;;;16.30;99.90;;;;;;5066235;28;20107;-82
2022/09/15 08:29:25;;;;;;;0.00;0.00;;;16.20;99.90;;;;;;5068846;28;20037;-82
2022/09/15 08:31:52;;;;;;;0.00;0.00;;;16.40;99.90;;;;;;5073277;28;20041;-81
2022/09/15 08:34:19;;;;;;;0.00;0.00;;;16.40;99.90;;;;;;5063268;28;20049;-81
2022/09/15 08:36:45;;;;;;;0.00;0.00;;;16.50;99.90;;;;;;5065974;28;20497;-81
2022/09/15 08:39:12;;;;;;;0.00;0.00;;;16.70;99.90;;;;;;5069422;28;20047;-82
2022/09/15 08:41:42;;;;;;;0.10;0.10;;;16.60;99.90;;;;;;5060085;28;20052;-79
2022/09/15 08:44:21;;;;;;;0.00;0.00;;;16.50;99.90;;;;;;5066285;28;20116;-81
2022/09/15 08:46:52;;;;;;;0.00;0.00;;;16.40;99.90;;;;;;5062182;28;20045;-81
2022/09/15 08:49:26;;;;;;;0.00;0.00;;;16.40;99.90;;;;;;5069646;28;20072;-82
2022/09/15 08:52:19;;;;;;;0.00;0.00;;;16.50;99.90;;;;;;5072319;28;20117;-80
2022/09/15 08:54:47;;;;;;;0.00;0.00;;;16.50;99.90;;;;;;5068092;28;20044;-82
2022/09/15 08:57:18;;;;;;;0.00;0.00;;;16.40;99.90;;;;;;5062969;28;20083;-81
2022/09/15 08:59:45;;;;;;;0.00;0.00;;;16.30;99.90;;;;;;5063274;28;20052;-81
2022/09/15 09:02:48;;;;;;;0.00;0.00;;;16.30;99.90;;;;;;5069644;28;20037;-81
2022/09/15 09:05:33;;;;;;;0.05;0.05;;;16.50;99.90;;;;;;5059439;28;20044;-81
2022/09/15 09:08:20;;;;;;;0.00;0.00;;;16.50;99.90;;;;;;5056867;28;20541;-81
2022/09/15 09:10:52;;;;;;;0.00;0.00;;;16.50;99.90;;;;;;5071533;28;20040;-81
2022/09/15 09:13:28;;;;;;;0.00;0.00;;;16.50;99.90;;;;;;5072877;28;20068;-81
2022/09/15 09:16:26;;;;;;;0.00;0.00;;;16.70;99.90;;;;;;5059267;28;20506;-81
2022/09/15 09:19:11;;;;;;;0.00;0.00;;;16.80;99.90;;;;;;5064898;28;20424;-81
2022/09/15 09:21:41;;;;;;;0.00;0.00;;;16.90;99.90;;;;;;5062919;28;20047;-80
2022/09/15 09:24:14;;;;;;;0.00;0.00;;;17.10;99.90;;;;;;5063120;28;20048;-81
2022/09/15 09:26:42;;;;;;;0.00;0.00;;;17.10;99.90;;;;;;5076672;28;20044;-81
2022/09/15 09:29:14;;;;;;;0.00;0.00;;;17.00;99.90;;;;;;5055348;28;20408;-81
2022/09/15 09:31:44;;;;;;;0.00;0.00;;;17.10;99.90;;;;;;5077258;28;20422;-81
2022/09/15 09:34:18;;;;;;;;;;;17.10;99.80;;;;;;5059632;28;20044;-81
2022/09/15 09:36:49;;;;;;;0.00;0.00;;;16.90;99.90;;;;;;5068555;28;19927;-81
2022/09/15 09:39:15;;;;;;;0.00;0.00;;;17.00;99.90;;;;;;5072985;28;20537;-81
2022/09/15 09:41:43;;;;;;;0.00;0.00;;;17.10;99.90;;;;;;5075353;28;20049;-80
2022/09/15 09:44:13;;;;;;;0.00;0.00;;;17.20;99.90;;;;;;5061667;28;20076;-81
2022/09/15 09:46:41;;;;;;;0.00;0.00;;;17.10;99.00;;;;;;5062216;28;20489;-80
2022/09/15 09:49:15;;;;;;;0.00;0.00;;;17.00;99.90;;;;;;5069500;28;20044;-81
2022/09/15 09:51:51;;;;;;;0.00;0.00;;;16.90;99.90;;;;;;5072854;28;20416;-81
2022/09/15 09:54:19;;;;;;;0.00;0.00;;;16.90;99.90;;;;;;5070445;28;20129;-81
2022/09/15 09:56:47;;;;;;;0.00;0.00;;;16.90;99.20;;;;;;5062880;28;20044;-81
2022/09/15 09:59:37;;;;;;;0.00;0.00;;;17.00;99.40;;;;;;5080149;28;20043;-82
2022/09/15 10:02:17;;;;;;;0.00;0.00;;;17.00;99.40;;;;;;5062674;28;20109;-81
2022/09/15 10:04:46;;;;;;;0.00;0.00;;;16.70;98.20;;;;;;5066042;28;20041;-80
2022/09/15 10:07:17;;;;;;;0.00;0.00;;;16.60;98.30;;;;;;5073895;28;20389;-80
2022/09/15 10:09:56;;;;;;;0.00;0.00;;;16.70;98.80;;;;;;5056712;28;20041;-81
2022/09/15 10:12:27;;;;;;;0.00;0.00;;;16.90;97.80;;;;;;5077712;28;20040;-81
2022/09/15 10:14:57;;;;;;;0.00;0.00;;;16.90;97.90;;;;;;5065598;28;20048;-80
2022/09/15 10:17:36;;;;;;;0.00;0.00;;;16.90;97.90;;;;;;5063518;28;20765;-79
2022/09/15 10:20:06;;;;;;;0.00;0.00;;;16.90;98.00;;;;;;5056320;28;20511;-81
2022/09/15 10:22:35;;;;;;;;;;;16.80;97.20;;;;;;5055256;28;20045;-80
2022/09/15 10:25:25;;;;;;;0.00;0.00;;;16.70;97.40;;;;;;5060151;28;19931;-80
2022/09/15 10:28:15;;;;;;;0.00;0.00;;;16.80;97.70;;;;;;5064197;28;20298;-80
2022/09/15 10:31:02;;;;;;;0.00;0.00;;;17.00;97.40;;;;;;5067116;28;20041;-81
2022/09/15 10:33:30;;;;;;;0.00;0.00;;;17.10;97.50;;;;;;5061126;28;20049;-80
2022/09/15 10:36:04;;;;;;;0.00;0.00;;;17.00;97.20;;;;;;5070403;28;20067;-80
2022/09/15 10:38:42;;;;;;;0.00;0.00;;;17.00;97.30;;;;;;5063736;28;20064;-82
2022/09/15 10:41:27;;;;;;;0.00;0.00;;;17.20;96.50;;;;;;5064087;28;20079;-81
2022/09/15 10:44:21;;;;;;;0.10;0.10;;;17.40;95.00;;;;;;5064759;28;20056;-81
2022/09/15 10:46:58;;;;;;;0.00;0.00;;;17.30;96.00;;;;;;5060207;28;20040;-81
2022/09/15 10:49:39;;;;;;;0.00;0.00;;;17.30;95.40;;;;;;5066364;28;20041;-81
2022/09/15 10:52:16;;;;;;;0.00;0.00;;;17.40;95.50;;;;;;5067151;28;20393;-81
2022/09/15 10:54:58;;;;;;;0.00;0.00;;;17.50;95.80;;;;;;5062281;28;20049;-81
2022/09/15 10:57:43;;;;;;;0.00;0.00;;;17.60;95.30;;;;;;5069316;28;20060;-80
2022/09/15 11:00:14;;;;;;;0.00;0.00;;;17.50;95.30;;;;;;5060941;28;20083;-81
2022/09/15 11:03:05;;;;;;;0.00;0.00;;;17.50;95.70;;;;;;5063990;28;20051;-81
2022/09/15 11:05:45;;;;;;;0.00;0.00;;;17.60;95.40;;;;;;5059802;28;20037;-81
2022/09/15 11:08:29;;;;;;;0.00;0.00;;;17.50;94.90;;;;;;5052634;28;20535;-80
2022/09/15 11:11:06;;;;;;;0.00;0.00;;;17.50;94.60;;;;;;5053847;28;20427;-80
2022/09/15 11:13:43;;;;;;;0.00;0.00;;;17.40;94.70;;;;;;5053203;28;20501;-81
2022/09/15 11:16:27;;;;;;;0.00;0.00;;;17.40;95.40;;;;;;5061624;28;20045;-81
2022/09/15 11:19:05;;;;;;;0.00;0.00;;;17.10;94.90;;;;;;5055046;28;20098;-81
2022/09/15 11:21:38;;;;;;;0.00;0.00;;;17.10;95.90;;;;;;5051677;28;20045;-81
2022/09/15 11:24:27;;;;;;;0.00;0.00;;;17.10;96.00;;;;;;5052943;28;20045;-81
2022/09/15 11:26:58;;;;;;;0.00;0.00;;;17.30;95.80;;;;;;5052464;28;20127;-81
2022/09/15 11:29:30;;;;;;;0.00;0.00;;;17.30;95.10;;;;;;5063687;28;20048;-82
2022/09/15 11:32:03;;;;;;;0.00;0.00;;;17.30;95.60;;;;;;5065208;28;20040;-81
2022/09/15 11:34:34;;;;;;;0.00;0.00;;;17.40;95.10;;;;;;5054393;28;20040;-81
2022/09/15 11:37:06;;;;;;;0.00;0.00;;;17.30;95.90;;;;;;5064565;28;20211;-81
2022/09/15 11:39:40;;;;;;;0.00;0.00;;;17.40;95.40;;;;;;5059952;28;20051;-81
2022/09/15 11:42:13;;;;;;;0.00;0.00;;;17.60;95.70;;;;;;5060867;28;20044;-81
2022/09/15 11:44:42;;;;;;;0.00;0.00;;;17.80;95.20;;;;;;5056651;28;20047;-80
2022/09/15 11:47:25;;;;;;;0.00;0.00;;;17.90;95.50;;;;;;5061972;28;20053;-79
2022/09/15 11:49:56;;;;;;;0.00;0.00;;;18.20;95.60;;;;;;5057835;28;20040;-80
2022/09/15 11:52:43;;;;;;;0.00;0.00;;;18.40;93.90;;;;;;5059075;28;20048;-81
2022/09/15 11:55:19;;;;;;;0.00;0.00;;;18.40;94.20;;;;;;5055586;28;20049;-80
2022/09/15 11:57:53;;;;;;;0.00;0.00;;;18.40;93.50;;;;;;5048405;28;20059;-81
2022/09/15 12:00:20;;;;;;;0.00;0.00;;;18.30;92.20;;;;;;5055569;28;20507;-82
2022/09/15 12:02:53;;;;;;;0.00;0.00;;;18.30;93.00;;;;;;5057340;28;20079;-81
2022/09/15 12:05:25;;;;;;;0.10;0.10;;;17.90;92.00;;;;;;5050381;28;20056;-80
2022/09/15 12:07:56;;;;;;;0.00;0.00;;;18.10;93.10;;;;;;5052806;28;20048;-80
2022/09/15 12:10:29;;;;;;;0.00;0.00;;;18.10;92.90;;;;;;5060574;28;20045;-81
2022/09/15 12:12:59;;;;;;;0.00;0.00;;;17.90;92.90;;;;;;5073720;28;20040;-81
2022/09/15 12:15:26;;;;;;;0.00;0.00;;;17.90;92.60;;;;;;5067178;28;21452;-81
2022/09/15 12:18:07;;;;;;;0.00;0.00;;;18.00;92.70;;;;;;5050958;28;20064;-81
2022/09/15 12:20:59;;;;;;;0.00;0.00;;;17.80;92.50;;;;;;5055488;28;20057;-82
2022/09/15 12:23:32;;;;;;;0.00;0.00;;;17.80;92.90;;;;;;5060553;28;20045;-81
2022/09/15 12:26:07;;;;;;;0.00;0.00;;;17.70;92.70;;;;;;5051069;28;20069;-82
2022/09/15 12:28:53;;;;;;;0.00;0.00;;;17.60;93.10;;;;;;5046952;28;20049;-81
2022/09/15 12:31:27;;;;;;;0.00;0.00;;;17.60;93.40;;;;;;5053555;28;20045;-81
2022/09/15 12:33:56;;;;;;;0.00;0.00;;;17.60;93.70;;;;;;5054278;28;20079;-81
2022/09/15 12:36:42;;;;;;;0.00;0.00;;;17.60;93.70;;;;;;5047840;28;20044;-81
2022/09/15 12:39:35;;;;;;;0.00;0.00;;;17.60;93.50;;;;;;5054388;28;20060;-82
2022/09/15 12:42:17;;;;;;;0.00;0.00;;;17.60;93.60;;;;;;5050583;28;20555;-82
2022/09/15 12:44:49;;;;;;;0.00;0.00;;;17.40;93.60;;;;;;5050370;28;20562;-82
2022/09/15 12:47:24;;;;;;;0.00;0.00;;;17.40;94.00;;;;;;5050507;28;20053;-80
2022/09/15 12:49:54;;;;;;;0.00;0.00;;;17.30;94.20;;;;;;5055978;28;20087;-82
2022/09/15 12:52:24;;;;;;;0.00;0.00;;;17.30;94.50;;;;;;5063275;28;20044;-81
2022/09/15 12:54:54;;;;;;;0.00;0.00;;;17.30;95.30;;;;;;5054521;28;20501;-81
2022/09/15 12:57:25;;;;;;;0.00;0.00;;;17.50;94.70;;;;;;5052081;28;20072;-81
2022/09/15 13:00:42;;;;;;;0.00;0.00;;;17.70;94.60;;;;;;5051409;28;20504;-81
2022/09/15 13:04:05;;;;;;;0.00;0.00;;;18.00;94.30;;;;;;5057124;28;20057;-82
2022/09/15 13:06:34;;;;;;;0.00;0.00;;;17.80;94.00;;;;;;5052576;28;20148;-81
2022/09/15 13:09:24;;;;;;;0.00;0.00;;;17.80;94.90;;;;;;5058851;28;20044;-80
2022/09/15 13:11:53;;;;;;;0.00;0.00;;;17.70;94.50;;;;;;5065008;28;20041;-81